Time;durP1;ratioP1;P1;durP2;ratioP2;P2;SDS_P1;SDS_P2;PMS_P1;PMS_P2;Temp;Humidity;BMP_temperature;BMP_pressure;BME280_temperature;BME280_humidity;BME280_pressure;Samples;Min_cycle;Max_cycle;Signal;HPM_P1;HPM_P2
2023/07/17 00:00:49;;;;;;;3.20;1.80;;;16.70;89.40;;;;;;2071015;28;20523;-84
2023/07/17 00:01:50;;;;;;;3.53;2.00;;;16.80;88.30;;;;;;2087845;28;20221;-83
2023/07/17 00:02:50;;;;;;;5.20;2.37;;;16.80;87.20;;;;;;2087455;28;20300;-83
2023/07/17 00:03:51;;;;;;;2.70;1.77;;;16.90;86.90;;;;;;2072251;28;20253;-83
2023/07/17 00:04:52;;;;;;;4.40;1.90;;;16.80;86.20;;;;;;2077559;28;20331;-85
2023/07/17 00:05:52;;;;;;;3.20;2.00;;;16.80;85.80;;;;;;2066049;28;20621;-86
2023/07/17 00:06:53;;;;;;;6.50;2.67;;;16.90;85.60;;;;;;2056396;28;20310;-85
2023/07/17 00:07:54;;;;;;;2.47;1.67;;;16.80;85.80;;;;;;2057895;28;20234;-84
2023/07/17 00:08:54;;;;;;;2.43;1.83;;;17.00;85.40;;;;;;2072547;28;20235;-85
2023/07/17 00:09:55;;;;;;;3.80;2.33;;;16.90;85.10;;;;;;2073858;28;20264;-83
2023/07/17 00:10:58;;;;;;;3.27;2.10;;;17.00;83.90;;;;;;2065012;28;20265;-84
2023/07/17 00:11:58;;;;;;;2.57;1.97;;;17.00;83.90;;;;;;2066253;28;20269;-82
2023/07/17 00:12:59;;;;;;;2.10;1.60;;;17.10;84.60;;;;;;2071452;28;20467;-84
2023/07/17 00:14:00;;;;;;;3.37;2.13;;;17.00;84.80;;;;;;2073085;28;20232;-85
2023/07/17 00:15:06;;;;;;;3.07;2.10;;;17.10;84.80;;;;;;2073136;28;20233;-84
2023/07/17 00:16:07;;;;;;;4.33;1.90;;;17.10;84.40;;;;;;2079707;28;20680;-85
2023/07/17 00:17:08;;;;;;;4.70;2.40;;;17.10;84.20;;;;;;2072478;28;20435;-83
2023/07/17 00:18:08;;;;;;;4.77;2.33;;;17.10;83.90;;;;;;2055032;28;20429;-83
2023/07/17 00:19:09;;;;;;;3.57;2.00;;;17.20;83.70;;;;;;2054466;28;20195;-84
2023/07/17 00:20:11;;;;;;;2.73;1.90;;;17.30;82.90;;;;;;2055535;28;20199;-84
2023/07/17 00:21:12;;;;;;;5.73;2.07;;;17.30;82.30;;;;;;2059972;28;20254;-84
2023/07/17 00:22:13;;;;;;;4.10;2.30;;;17.40;81.40;;;;;;2060012;28;20448;-83
2023/07/17 00:23:13;;;;;;;3.47;1.90;;;17.40;81.10;;;;;;2064312;28;20174;-83
2023/07/17 00:24:14;;;;;;;4.37;2.13;;;17.50;80.60;;;;;;2070752;28;20558;-83
2023/07/17 00:25:15;;;;;;;3.53;1.97;;;17.60;81.10;;;;;;2070884;28;20174;-84
2023/07/17 00:26:15;;;;;;;2.00;1.80;;;17.60;79.90;;;;;;2055831;28;20634;-82
2023/07/17 00:27:16;;;;;;;2.50;1.90;;;17.60;78.10;;;;;;2072047;28;20276;-84
2023/07/17 00:28:17;;;;;;;2.57;1.80;;;17.60;79.30;;;;;;2076334;28;20185;-84
2023/07/17 00:29:28;;;;;;;3.97;2.10;;;17.60;79.50;;;;;;2068461;28;20205;-83
2023/07/17 00:30:29;;;;;;;3.20;1.70;;;17.60;79.20;;;;;;2067140;28;20626;-85
2023/07/17 00:31:29;;;;;;;3.00;1.87;;;17.60;79.70;;;;;;2082618;28;20495;-83
2023/07/17 00:32:30;;;;;;;2.70;2.07;;;17.70;80.10;;;;;;2089941;28;20220;-83
2023/07/17 00:33:31;;;;;;;1.93;1.70;;;17.60;80.30;;;;;;2077637;28;20229;-83
2023/07/17 00:34:31;;;;;;;3.57;2.07;;;17.60;80.40;;;;;;2060158;28;20229;-83
2023/07/17 00:35:32;;;;;;;3.23;1.90;;;17.60;80.60;;;;;;2075647;28;20295;-84
2023/07/17 00:36:33;;;;;;;6.67;1.87;;;17.60;80.50;;;;;;2072604;28;20233;-83
2023/07/17 00:37:33;;;;;;;5.13;2.10;;;17.60;80.60;;;;;;2055703;28;20235;-85
2023/07/17 00:38:34;;;;;;;2.63;1.90;;;17.60;81.00;;;;;;2064378;28;20707;-83
2023/07/17 00:39:35;;;;;;;3.00;2.10;;;17.60;81.10;;;;;;2066118;28;20281;-83
2023/07/17 00:40:39;;;;;;;4.33;2.20;;;17.70;80.60;;;;;;2063366;28;20267;-83
2023/07/17 00:41:40;;;;;;;4.07;2.13;;;17.70;79.00;;;;;;2071311;28;20501;-83
2023/07/17 00:42:41;;;;;;;3.73;2.20;;;17.70;77.90;;;;;;2072484;28;20477;-83
2023/07/17 00:43:41;;;;;;;3.40;2.13;;;17.80;78.70;;;;;;2072748;28;21042;-85
2023/07/17 00:44:42;;;;;;;2.87;2.10;;;17.70;80.50;;;;;;2071080;28;20240;-84
2023/07/17 00:45:45;;;;;;;2.20;1.60;;;17.70;78.20;;;;;;2072901;28;20244;-84
2023/07/17 00:46:48;;;;;;;3.53;2.20;;;17.60;78.60;;;;;;2068759;28;20717;-84
2023/07/17 00:47:49;;;;;;;3.43;2.17;;;17.70;79.50;;;;;;2062402;28;20469;-84
2023/07/17 00:48:50;;;;;;;2.87;2.23;;;17.60;77.20;;;;;;2052893;28;20504;-83
2023/07/17 00:49:51;;;;;;;3.37;1.93;;;17.70;76.60;;;;;;2057015;28;20230;-84
2023/07/17 00:50:53;;;;;;;4.27;2.23;;;17.80;78.30;;;;;;2064700;28;20266;-84
2023/07/17 00:51:55;;;;;;;3.47;1.93;;;17.80;78.20;;;;;;2057929;28;20230;-83
2023/07/17 00:52:56;;;;;;;3.23;2.00;;;17.70;78.10;;;;;;2064440;28;20491;-85
2023/07/17 00:53:57;;;;;;;4.47;2.07;;;17.70;77.60;;;;;;2072683;28;20534;-85
2023/07/17 00:54:58;;;;;;;2.00;1.80;;;17.60;77.50;;;;;;2063843;28;20489;-83
2023/07/17 00:55:59;;;;;;;5.47;2.20;;;17.70;77.60;;;;;;2056896;28;20473;-85
2023/07/17 00:57:03;;;;;;;4.03;2.13;;;17.80;76.90;;;;;;2063681;28;20313;-84
2023/07/17 00:58:04;;;;;;;3.60;2.13;;;17.70;77.70;;;;;;2060575;28;20246;-84
2023/07/17 00:59:05;;;;;;;4.93;2.70;;;17.60;78.10;;;;;;2080376;28;20433;-83
2023/07/17 01:00:08;;;;;;;2.90;2.20;;;17.50;80.40;;;;;;2069405;28;20473;-83
2023/07/17 01:01:10;;;;;;;2.20;1.80;;;17.60;80.20;;;;;;2065011;28;20205;-84
2023/07/17 01:02:13;;;;;;;3.77;2.30;;;17.70;79.40;;;;;;2076655;28;20445;-84
2023/07/17 01:03:14;;;;;;;2.33;2.13;;;17.80;79.10;;;;;;2070295;28;20454;-84
2023/07/17 01:04:15;;;;;;;4.33;2.03;;;17.80;78.10;;;;;;2072759;28;20787;-83
2023/07/17 01:05:15;;;;;;;3.90;1.87;;;17.80;78.50;;;;;;2088100;28;20212;-84
2023/07/17 01:06:16;;;;;;;5.10;2.40;;;17.80;79.10;;;;;;2068511;28;20190;-84
2023/07/17 01:07:17;;;;;;;2.73;2.00;;;17.80;79.40;;;;;;2068975;28;20186;-83
2023/07/17 01:08:17;;;;;;;4.03;1.87;;;17.80;79.60;;;;;;2069161;28;20190;-84
2023/07/17 01:09:18;;;;;;;2.47;2.00;;;17.70;80.20;;;;;;2075410;28;20205;-85
2023/07/17 01:10:21;;;;;;;3.60;2.53;;;17.80;79.40;;;;;;2076767;28;20237;-83
2023/07/17 01:11:21;;;;;;;3.57;2.43;;;17.70;79.80;;;;;;2065165;28;21034;-84
2023/07/17 01:12:22;;;;;;;2.70;2.00;;;17.80;80.70;;;;;;2055772;28;20247;-84
2023/07/17 01:13:23;;;;;;;3.23;2.10;;;17.60;82.00;;;;;;2071676;28;20229;-84
2023/07/17 01:14:23;;;;;;;3.77;1.90;;;17.70;81.30;;;;;;2082666;28;20237;-85
2023/07/17 01:15:24;;;;;;;2.33;1.83;;;17.80;79.50;;;;;;2063810;28;20262;-85
2023/07/17 01:16:25;;;;;;;5.20;2.23;;;17.80;77.50;;;;;;2072769;28;20237;-84
2023/07/17 01:17:26;;;;;;;3.40;1.90;;;17.80;80.80;;;;;;2072379;28;20634;-85
2023/07/17 01:18:27;;;;;;;4.87;2.20;;;17.70;83.10;;;;;;2072723;28;20471;-83
2023/07/17 01:19:27;;;;;;;4.83;2.07;;;17.60;81.60;;;;;;2072605;28;20264;-83
2023/07/17 01:20:28;;;;;;;3.47;2.30;;;17.60;82.10;;;;;;2066616;28;20229;-84
2023/07/17 01:21:31;;;;;;;3.33;2.20;;;17.50;83.60;;;;;;2068024;28;20234;-84
2023/07/17 01:22:46;;;;;;;3.43;2.10;;;17.40;85.00;;;;;;2074420;28;20687;-85
2023/07/17 01:23:47;;;;;;;5.17;2.30;;;17.30;86.00;;;;;;2068014;28;20490;-82
2023/07/17 01:24:48;;;;;;;2.90;2.07;;;17.30;86.20;;;;;;2074694;28;20905;-85
2023/07/17 01:25:48;;;;;;;3.30;2.13;;;17.20;86.60;;;;;;2073959;28;20233;-85
2023/07/17 01:26:50;;;;;;;3.50;2.47;;;17.30;87.60;;;;;;2057685;28;20255;-84
2023/07/17 01:27:51;;;;;;;3.73;2.03;;;17.30;85.70;;;;;;2070820;28;20240;-84
2023/07/17 01:28:52;;;;;;;2.77;2.10;;;17.30;85.60;;;;;;2070325;28;20532;-83
2023/07/17 01:29:53;;;;;;;4.27;2.20;;;17.40;86.60;;;;;;2071800;28;21064;-82
2023/07/17 01:30:53;;;;;;;2.97;2.13;;;17.40;86.20;;;;;;2063324;28;20222;-85
2023/07/17 01:31:54;;;;;;;8.40;2.40;;;17.30;86.30;;;;;;2073195;28;20259;-84
2023/07/17 01:32:55;;;;;;;3.77;2.47;;;17.30;86.00;;;;;;2080294;28;20384;-85
2023/07/17 01:33:55;;;;;;;2.93;2.13;;;17.30;86.00;;;;;;2068475;28;20226;-83
2023/07/17 01:34:56;;;;;;;3.30;2.23;;;17.30;85.30;;;;;;2067073;28;20234;-84
2023/07/17 01:35:57;;;;;;;5.50;2.47;;;17.40;84.80;;;;;;2064430;28;20230;-84
2023/07/17 01:36:58;;;;;;;2.23;1.90;;;17.50;84.60;;;;;;2062714;28;20258;-84
2023/07/17 01:37:59;;;;;;;5.27;2.40;;;17.60;84.00;;;;;;2074824;28;20473;-82
2023/07/17 01:38:59;;;;;;;3.10;2.23;;;17.60;83.60;;;;;;2076948;28;20260;-83
2023/07/17 01:40:03;;;;;;;3.20;2.23;;;17.60;83.90;;;;;;2066727;28;20238;-84
2023/07/17 01:41:04;;;;;;;5.27;2.40;;;17.50;85.00;;;;;;2075010;28;20245;-85
2023/07/17 01:42:05;;;;;;;3.30;2.40;;;17.50;85.10;;;;;;2064973;28;20867;-84
2023/07/17 01:43:06;;;;;;;4.10;2.30;;;17.50;85.20;;;;;;2056181;28;20277;-83
2023/07/17 01:44:07;;;;;;;2.70;1.87;;;17.50;86.10;;;;;;2056326;28;20468;-84
2023/07/17 01:45:08;;;;;;;4.87;2.50;;;17.40;86.20;;;;;;2065158;28;20439;-84
2023/07/17 01:46:09;;;;;;;4.43;2.50;;;17.30;87.00;;;;;;2070074;28;20186;-84
2023/07/17 01:47:10;;;;;;;3.70;2.30;;;17.30;86.60;;;;;;2071378;28;20428;-84
2023/07/17 01:48:11;;;;;;;3.50;2.03;;;17.30;85.50;;;;;;2070668;28;20183;-84
2023/07/17 01:49:11;;;;;;;3.67;2.40;;;17.30;85.20;;;;;;2070418;28;20213;-83
2023/07/17 01:50:12;;;;;;;3.77;2.20;;;17.30;84.60;;;;;;2068737;28;20202;-83
2023/07/17 01:51:13;;;;;;;3.43;2.10;;;17.30;85.30;;;;;;2069127;28;20233;-84
2023/07/17 01:52:14;;;;;;;3.60;2.23;;;17.30;87.10;;;;;;2069685;28;20269;-83
2023/07/17 01:53:21;;;;;;;5.00;2.23;;;17.30;85.20;;;;;;2063965;28;20186;-84
2023/07/17 01:54:22;;;;;;;4.50;2.10;;;17.40;84.30;;;;;;2056615;28;20723;-85
2023/07/17 01:55:23;;;;;;;3.93;2.33;;;17.40;84.50;;;;;;2068853;28;20569;-83
2023/07/17 01:56:24;;;;;;;4.63;2.00;;;17.40;85.10;;;;;;2068432;28;20229;-84
2023/07/17 01:57:24;;;;;;;3.50;2.37;;;17.40;85.10;;;;;;2063866;28;20535;-84
2023/07/17 01:58:25;;;;;;;6.20;2.63;;;17.30;85.40;;;;;;2071425;28;20316;-83
2023/07/17 01:59:26;;;;;;;2.97;1.93;;;17.30;85.10;;;;;;2063469;28;20297;-84
2023/07/17 02:00:27;;;;;;;3.40;2.40;;;17.40;85.10;;;;;;2064144;28;20268;-84
2023/07/17 02:01:28;;;;;;;5.10;2.33;;;17.20;85.40;;;;;;2070492;28;20695;-83
2023/07/17 02:02:28;;;;;;;4.13;2.20;;;17.20;85.80;;;;;;2071566;28;20519;-84
2023/07/17 02:03:30;;;;;;;3.30;2.13;;;17.20;86.20;;;;;;2072265;28;20229;-85
2023/07/17 02:04:31;;;;;;;2.97;1.87;;;17.20;87.10;;;;;;2079638;28;20292;-84
2023/07/17 02:05:32;;;;;;;6.10;2.00;;;17.30;86.60;;;;;;2071151;28;20470;-83
2023/07/17 02:06:32;;;;;;;2.97;2.20;;;17.30;86.70;;;;;;2055304;28;20230;-84
2023/07/17 02:07:33;;;;;;;3.40;2.10;;;17.30;89.30;;;;;;2064023;28;20234;-84
2023/07/17 02:08:34;;;;;;;3.03;2.00;;;17.50;85.20;;;;;;2071576;28;20777;-84
2023/07/17 02:09:35;;;;;;;2.83;2.20;;;17.40;84.80;;;;;;2070807;28;20304;-83
2023/07/17 02:10:40;;;;;;;3.23;2.47;;;17.30;84.70;;;;;;2071901;28;20471;-84
2023/07/17 02:11:41;;;;;;;2.73;2.17;;;17.30;85.90;;;;;;2072301;28;20280;-82
2023/07/17 02:12:42;;;;;;;4.83;2.40;;;17.20;86.00;;;;;;2066346;28;21068;-83
2023/07/17 02:13:42;;;;;;;4.43;2.20;;;17.20;86.40;;;;;;2086610;28;20282;-83
2023/07/17 02:14:43;;;;;;;2.47;1.90;;;17.30;86.30;;;;;;2077466;28;20225;-83
2023/07/17 02:15:45;;;;;;;4.57;2.27;;;17.20;86.60;;;;;;2082140;28;20248;-84
2023/07/17 02:16:45;;;;;;;3.90;2.47;;;17.20;87.40;;;;;;2074539;28;20229;-84
2023/07/17 02:17:46;;;;;;;3.00;2.17;;;17.10;88.20;;;;;;2059041;28;20469;-84
2023/07/17 02:18:47;;;;;;;4.93;2.50;;;17.10;88.80;;;;;;2066504;28;20306;-84
2023/07/17 02:19:48;;;;;;;5.73;2.60;;;17.10;88.40;;;;;;2068206;28;20242;-84
2023/07/17 02:20:52;;;;;;;4.80;2.37;;;17.00;88.40;;;;;;2061563;28;20237;-84
2023/07/17 02:21:52;;;;;;;3.57;2.30;;;17.00;88.70;;;;;;2062664;28;20607;-85
2023/07/17 02:22:53;;;;;;;3.80;2.20;;;17.00;89.10;;;;;;2058624;28;20476;-84
2023/07/17 02:23:57;;;;;;;3.50;2.30;;;17.00;88.20;;;;;;2058128;28;20287;-84
2023/07/17 02:24:58;;;;;;;4.17;2.53;;;17.00;87.70;;;;;;2064367;28;20886;-83
2023/07/17 02:25:58;;;;;;;9.77;2.63;;;17.00;87.40;;;;;;2056042;28;20489;-83
2023/07/17 02:27:00;;;;;;;6.40;2.30;;;16.90;86.40;;;;;;2067504;28;20307;-85
2023/07/17 02:28:01;;;;;;;3.57;2.40;;;16.90;87.60;;;;;;2064675;28;20226;-85
2023/07/17 02:29:02;;;;;;;4.03;2.20;;;16.90;87.30;;;;;;2072877;28;20435;-84
2023/07/17 02:30:04;;;;;;;3.30;2.10;;;16.90;87.60;;;;;;2074529;28;20181;-85
2023/07/17 02:31:06;;;;;;;4.77;2.47;;;16.90;88.30;;;;;;2072468;28;20467;-83
2023/07/17 02:32:07;;;;;;;4.60;2.67;;;16.90;87.50;;;;;;2080168;28;20422;-84
2023/07/17 02:33:07;;;;;;;2.90;2.37;;;16.90;89.60;;;;;;2073222;28;20439;-84
2023/07/17 02:34:08;;;;;;;4.47;2.60;;;17.00;89.10;;;;;;2072769;28;20200;-84
2023/07/17 02:35:10;;;;;;;3.50;2.37;;;16.90;87.40;;;;;;2069757;28;20212;-84
2023/07/17 02:36:11;;;;;;;3.73;2.37;;;16.90;86.40;;;;;;2073496;28;20185;-83
2023/07/17 02:37:11;;;;;;;4.10;2.57;;;17.00;86.50;;;;;;2072333;28;20516;-83
2023/07/17 02:38:12;;;;;;;3.30;2.33;;;17.10;87.60;;;;;;2064986;28;20182;-84
2023/07/17 02:39:13;;;;;;;4.17;2.43;;;17.00;87.20;;;;;;2061833;28;20599;-84
2023/07/17 02:40:15;;;;;;;2.97;2.30;;;16.90;87.20;;;;;;2063985;28;20718;-87
2023/07/17 02:41:16;;;;;;;5.13;2.43;;;16.90;87.60;;;;;;2062505;28;20186;-83
2023/07/17 02:42:17;;;;;;;4.07;2.50;;;16.90;88.00;;;;;;2060734;28;21023;-84
2023/07/17 02:43:18;;;;;;;5.23;2.63;;;16.90;88.40;;;;;;2075085;28;20351;-85
2023/07/17 02:44:18;;;;;;;4.57;2.47;;;17.00;88.20;;;;;;2074905;28;20193;-83
2023/07/17 02:45:19;;;;;;;4.33;2.27;;;17.00;88.10;;;;;;2066197;28;20194;-85
2023/07/17 02:46:19;;;;;;;3.77;2.60;;;17.10;86.90;;;;;;2057561;28;20191;-85
2023/07/17 02:47:20;;;;;;;6.20;2.63;;;17.20;86.50;;;;;;2053853;28;20227;-83
2023/07/17 02:48:21;;;;;;;8.67;2.53;;;17.10;86.10;;;;;;2065599;28;20802;-84
2023/07/17 02:49:22;;;;;;;4.97;2.50;;;17.10;86.90;;;;;;2072452;28;20261;-84
2023/07/17 02:50:22;;;;;;;2.77;2.20;;;17.10;86.60;;;;;;2061837;28;20698;-84
2023/07/17 02:51:23;;;;;;;3.73;2.70;;;17.00;86.10;;;;;;2063082;28;20261;-84
2023/07/17 02:52:24;;;;;;;2.90;2.00;;;17.00;86.00;;;;;;2055336;28;20230;-85
2023/07/17 02:53:25;;;;;;;2.97;2.27;;;17.00;86.60;;;;;;2070647;28;20604;-85
2023/07/17 02:54:26;;;;;;;6.33;2.63;;;17.00;86.80;;;;;;2078802;28;20441;-85
2023/07/17 02:55:27;;;;;;;3.70;2.50;;;17.00;86.60;;;;;;2074008;28;20473;-85
2023/07/17 02:56:27;;;;;;;3.77;2.27;;;16.90;87.90;;;;;;2073749;28;20225;-86
2023/07/17 02:57:28;;;;;;;3.53;2.43;;;16.90;87.00;;;;;;2066192;28;20257;-84
2023/07/17 02:58:29;;;;;;;3.50;2.40;;;16.80;88.00;;;;;;2063183;28;20646;-84
2023/07/17 02:59:30;;;;;;;4.23;2.23;;;16.70;88.60;;;;;;2063780;28;20358;-84
2023/07/17 03:00:30;;;;;;;5.13;2.30;;;16.70;89.00;;;;;;2063857;28;20769;-84
2023/07/17 03:01:31;;;;;;;5.27;2.53;;;16.60;89.40;;;;;;2073505;28;20482;-85
2023/07/17 03:02:32;;;;;;;4.23;2.50;;;16.50;89.90;;;;;;2072512;28;20588;-85
2023/07/17 03:03:32;;;;;;;4.00;2.30;;;16.40;90.40;;;;;;2073867;28;20228;-85
2023/07/17 03:04:33;;;;;;;4.07;2.47;;;16.50;90.50;;;;;;2070398;28;20226;-84
2023/07/17 03:05:35;;;;;;;3.70;2.10;;;16.40;90.60;;;;;;2078678;28;20693;-85
2023/07/17 03:06:35;;;;;;;4.07;2.67;;;16.40;91.00;;;;;;2069565;28;20241;-84
2023/07/17 03:07:42;;;;;;;4.30;2.87;;;16.40;90.90;;;;;;2069578;28;20533;-85
2023/07/17 03:08:42;;;;;;;3.60;2.37;;;16.30;91.10;;;;;;2060498;28;20211;-85
2023/07/17 03:09:43;;;;;;;4.17;2.57;;;16.40;91.10;;;;;;2058392;28;20476;-84
2023/07/17 03:10:44;;;;;;;4.40;2.50;;;16.40;91.00;;;;;;2061646;28;20226;-85
2023/07/17 03:11:44;;;;;;;4.23;2.77;;;16.40;91.10;;;;;;2057048;28;20286;-82
2023/07/17 03:12:45;;;;;;;3.53;2.50;;;16.30;91.50;;;;;;2070139;28;20654;-85
2023/07/17 03:13:46;;;;;;;3.30;2.47;;;16.30;91.40;;;;;;2080152;28;20281;-84
2023/07/17 03:14:46;;;;;;;4.27;2.13;;;16.40;91.20;;;;;;2081514;28;20339;-84
2023/07/17 03:15:48;;;;;;;3.63;2.50;;;16.30;91.20;;;;;;2066157;28;20682;-84
2023/07/17 03:16:49;;;;;;;3.90;2.40;;;16.30;91.30;;;;;;2064298;28;20233;-84
2023/07/17 03:17:49;;;;;;;4.30;2.57;;;16.30;91.40;;;;;;2054001;28;20520;-85
2023/07/17 03:18:50;;;;;;;2.93;2.43;;;16.30;91.60;;;;;;2065149;28;20226;-85
2023/07/17 03:19:51;;;;;;;4.43;2.83;;;16.20;92.40;;;;;;2072397;28;20233;-84
2023/07/17 03:20:52;;;;;;;4.80;2.93;;;16.20;92.60;;;;;;2071902;28;20233;-84
2023/07/17 03:21:52;;;;;;;4.45;2.33;;;16.20;92.40;;;;;;2072810;28;20337;-84
2023/07/17 03:22:53;;;;;;;4.20;2.40;;;16.10;92.50;;;;;;2055313;28;20230;-83
2023/07/17 03:23:54;;;;;;;5.73;2.53;;;16.10;92.40;;;;;;2055957;28;20239;-84
2023/07/17 03:24:55;;;;;;;4.37;2.57;;;16.10;92.50;;;;;;2058509;28;20318;-84
2023/07/17 03:25:57;;;;;;;3.00;2.60;;;16.10;92.70;;;;;;2056321;28;20479;-83
2023/07/17 03:26:58;;;;;;;3.60;2.30;;;16.10;92.70;;;;;;2056271;28;20686;-84
2023/07/17 03:28:02;;;;;;;5.90;2.70;;;16.00;93.50;;;;;;2072506;28;20233;-84
2023/07/17 03:29:04;;;;;;;7.38;3.35;;;15.90;93.30;;;;;;2083242;28;20223;-85
2023/07/17 03:30:05;;;;;;;2.85;2.13;;;15.90;93.30;;;;;;2080282;28;20238;-85
2023/07/17 03:31:07;;;;;;;4.00;2.38;;;15.80;93.50;;;;;;2064326;28;20217;-85
2023/07/17 03:32:08;;;;;;;4.72;2.72;;;15.80;93.40;;;;;;2061050;28;20174;-84
2023/07/17 03:33:09;;;;;;;5.30;3.10;;;15.90;93.60;;;;;;2072581;28;20190;-84
2023/07/17 03:34:09;;;;;;;3.60;2.63;;;15.90;93.40;;;;;;2076122;28;20184;-84
2023/07/17 03:35:11;;;;;;;4.37;2.93;;;16.00;93.50;;;;;;2080947;28;20257;-84
2023/07/17 03:36:12;;;;;;;4.03;2.70;;;15.90;93.60;;;;;;2072997;28;20185;-84
2023/07/17 03:37:13;;;;;;;4.80;3.40;;;16.00;93.70;;;;;;2065070;28;20293;-84
2023/07/17 03:38:13;;;;;;;4.73;2.80;;;16.00;94.00;;;;;;2070132;28;20280;-85
2023/07/17 03:39:14;;;;;;;3.13;2.53;;;16.00;93.30;;;;;;2080359;28;20193;-84
2023/07/17 03:40:15;;;;;;;4.20;2.47;;;16.10;93.30;;;;;;2072417;28;20185;-84
2023/07/17 03:41:17;;;;;;;4.83;3.10;;;16.00;93.50;;;;;;2077648;28;20667;-85
2023/07/17 03:42:18;;;;;;;5.38;2.67;;;15.90;93.10;;;;;;2076983;28;20554;-83
2023/07/17 03:43:18;;;;;;;4.57;2.50;;;15.80;93.50;;;;;;2077872;28;20177;-84
2023/07/17 03:44:21;;;;;;;6.03;2.90;;;15.70;93.60;;;;;;2085235;28;20799;-83
2023/07/17 03:45:21;;;;;;;4.00;2.58;;;15.60;94.00;;;;;;2076480;28;20295;-84
2023/07/17 03:46:22;;;;;;;5.47;2.70;;;15.50;94.00;;;;;;2061023;28;20324;-84
2023/07/17 03:47:23;;;;;;;5.20;2.60;;;15.50;94.00;;;;;;2062091;28;20230;-84
2023/07/17 03:48:23;;;;;;;4.03;2.80;;;15.50;94.30;;;;;;2056939;28;20305;-83
2023/07/17 03:49:24;;;;;;;6.43;2.57;;;15.50;94.70;;;;;;2056957;28;20262;-84
2023/07/17 03:50:25;;;;;;;6.63;2.70;;;15.40;94.70;;;;;;2061415;28;20230;-84
2023/07/17 03:51:25;;;;;;;5.50;2.83;;;15.40;94.80;;;;;;2064563;28;20237;-84
2023/07/17 03:52:26;;;;;;;4.40;2.60;;;15.50;95.00;;;;;;2073126;28;20228;-84
2023/07/17 03:53:27;;;;;;;4.60;2.53;;;15.40;94.90;;;;;;2073621;28;20234;-85
2023/07/17 03:54:28;;;;;;;5.23;3.37;;;15.40;95.00;;;;;;2071221;28;20700;-84
2023/07/17 03:55:28;;;;;;;4.23;2.83;;;15.40;95.20;;;;;;2064337;28;20226;-86
2023/07/17 03:56:29;;;;;;;4.47;2.63;;;15.20;95.50;;;;;;2064690;28;20241;-85
2023/07/17 03:57:30;;;;;;;3.60;2.67;;;15.30;95.70;;;;;;2071307;28;20229;-85
2023/07/17 03:58:30;;;;;;;6.53;2.70;;;15.30;95.60;;;;;;2068608;28;20733;-83
2023/07/17 03:59:53;;;;;;;5.13;2.83;;;15.20;95.80;;;;;;2063352;28;20240;-84
2023/07/17 04:00:54;;;;;;;5.97;2.85;;;15.20;95.90;;;;;;2063340;28;20221;-84
2023/07/17 04:01:55;;;;;;;6.70;3.10;;;15.20;95.70;;;;;;2063828;28;20285;-84
2023/07/17 04:02:55;;;;;;;4.60;2.30;;;15.20;95.80;;;;;;2070000;28;20368;-84
2023/07/17 04:03:56;;;;;;;7.83;2.50;;;15.30;95.80;;;;;;2065645;28;20235;-84
2023/07/17 04:04:57;;;;;;;6.00;2.90;;;15.30;95.80;;;;;;2065055;28;20230;-84
2023/07/17 04:05:57;;;;;;;4.83;2.40;;;15.40;95.80;;;;;;2069997;28;20230;-86
2023/07/17 04:06:58;;;;;;;6.30;2.80;;;15.50;95.70;;;;;;2072737;28;20241;-83
2023/07/17 04:07:59;;;;;;;5.00;2.90;;;15.40;95.60;;;;;;2056777;28;20231;-84
2023/07/17 04:08:59;;;;;;;6.30;2.53;;;15.40;96.30;;;;;;2059069;28;20753;-84
2023/07/17 04:10:00;;;;;;;4.77;2.50;;;15.40;96.60;;;;;;2064044;28;20261;-83
2023/07/17 04:11:02;;;;;;;4.65;2.22;;;15.40;97.10;;;;;;2071638;28;20364;-83
2023/07/17 04:12:05;;;;;;;6.90;3.50;;;15.50;97.00;;;;;;2075541;28;20180;-84
2023/07/17 04:13:06;;;;;;;4.47;2.97;;;15.50;96.80;;;;;;2064407;28;20475;-84
2023/07/17 04:14:08;;;;;;;4.10;3.00;;;15.50;96.20;;;;;;2058399;28;20416;-83
2023/07/17 04:15:10;;;;;;;5.80;2.63;;;15.60;96.10;;;;;;2062547;28;20261;-84
2023/07/17 04:16:13;;;;;;;3.57;2.63;;;15.70;95.60;;;;;;2067948;28;20420;-84
2023/07/17 04:17:13;;;;;;;4.73;2.70;;;15.70;95.60;;;;;;2066979;28;20928;-85
2023/07/17 04:18:15;;;;;;;4.57;2.90;;;15.70;95.60;;;;;;2066396;28;20448;-84
2023/07/17 04:19:15;;;;;;;3.97;2.70;;;15.70;95.70;;;;;;2066061;28;20219;-84
2023/07/17 04:20:16;;;;;;;6.60;3.20;;;15.70;95.90;;;;;;2058375;28;20494;-83
2023/07/17 04:21:17;;;;;;;3.20;2.33;;;15.70;96.10;;;;;;2067855;28;20665;-84
2023/07/17 04:22:17;;;;;;;5.37;3.07;;;15.60;96.50;;;;;;2067612;28;20611;-84
2023/07/17 04:23:18;;;;;;;5.33;2.80;;;15.40;96.40;;;;;;2075932;28;20184;-85
2023/07/17 04:24:19;;;;;;;4.47;2.60;;;15.30;97.20;;;;;;2084361;28;20195;-85
2023/07/17 04:25:20;;;;;;;4.20;2.63;;;15.30;96.80;;;;;;2078250;28;20208;-85
2023/07/17 04:26:21;;;;;;;3.58;2.40;;;15.30;96.80;;;;;;2077773;28;20295;-83
2023/07/17 04:27:22;;;;;;;6.03;2.57;;;15.30;97.00;;;;;;2073685;28;20229;-84
2023/07/17 04:28:23;;;;;;;4.17;2.60;;;15.40;97.10;;;;;;2077496;28;20297;-83
2023/07/17 04:29:23;;;;;;;3.60;2.60;;;15.40;97.20;;;;;;2074603;28;20311;-84
2023/07/17 04:30:24;;;;;;;5.43;2.77;;;15.50;96.80;;;;;;2070219;28;20316;-84
2023/07/17 04:31:25;;;;;;;5.60;3.00;;;15.60;96.20;;;;;;2081306;28;20241;-83
2023/07/17 04:32:26;;;;;;;3.50;2.53;;;15.60;96.30;;;;;;2074328;28;20236;-84
2023/07/17 04:33:26;;;;;;;4.60;3.00;;;15.60;96.80;;;;;;2072663;28;20711;-84
2023/07/17 04:34:30;;;;;;;4.17;2.93;;;15.50;96.50;;;;;;2071012;28;20483;-85
2023/07/17 04:35:37;;;;;;;3.35;2.80;;;15.60;96.60;;;;;;2063351;28;20236;-86
2023/07/17 04:36:38;;;;;;;5.13;2.88;;;15.60;96.30;;;;;;2073656;28;20261;-84
2023/07/17 04:37:40;;;;;;;5.67;3.03;;;15.60;96.40;;;;;;2069974;28;20236;-85
2023/07/17 04:38:41;;;;;;;3.25;2.35;;;15.50;96.50;;;;;;2065868;28;20226;-85
2023/07/17 04:39:42;;;;;;;7.43;2.40;;;15.60;96.40;;;;;;2070430;28;20252;-84
2023/07/17 04:40:42;;;;;;;5.33;2.90;;;15.60;96.60;;;;;;2061412;28;20234;-83
2023/07/17 04:41:44;;;;;;;5.20;2.70;;;15.60;96.70;;;;;;2065360;28;20303;-84
2023/07/17 04:42:44;;;;;;;5.43;2.80;;;15.60;97.00;;;;;;2065793;28;20226;-83
2023/07/17 04:43:45;;;;;;;4.47;2.60;;;15.70;97.00;;;;;;2073804;28;20471;-84
2023/07/17 04:44:46;;;;;;;6.70;2.80;;;15.70;97.20;;;;;;2057700;28;20664;-83
2023/07/17 04:45:46;;;;;;;5.13;3.10;;;15.70;97.10;;;;;;2065873;28;20241;-86
2023/07/17 04:46:47;;;;;;;6.60;2.97;;;15.80;96.80;;;;;;2062931;28;20337;-84
2023/07/17 04:47:48;;;;;;;4.00;2.50;;;15.90;96.10;;;;;;2070221;28;20289;-84
2023/07/17 04:48:49;;;;;;;4.33;2.53;;;16.10;95.80;;;;;;2072299;28;20233;-84
2023/07/17 04:49:53;;;;;;;3.87;2.83;;;16.10;95.50;;;;;;2061881;28;20257;-86
2023/07/17 04:50:53;;;;;;;4.80;2.60;;;16.10;95.40;;;;;;2072939;28;20260;-84
2023/07/17 04:51:54;;;;;;;4.13;2.50;;;16.10;95.40;;;;;;2064745;28;20483;-86
2023/07/17 04:52:55;;;;;;;4.27;2.90;;;16.20;95.60;;;;;;2072962;28;20225;-84
2023/07/17 04:53:55;;;;;;;4.13;2.43;;;16.10;95.80;;;;;;2064814;28;20280;-85
2023/07/17 04:54:57;;;;;;;5.13;2.53;;;16.20;95.80;;;;;;2063953;28;20233;-84
2023/07/17 04:55:58;;;;;;;4.23;2.40;;;16.30;95.50;;;;;;2075055;28;20304;-84
2023/07/17 04:56:58;;;;;;;4.37;2.67;;;16.40;95.30;;;;;;2064674;28;20547;-83
2023/07/17 04:57:59;;;;;;;3.67;2.50;;;16.40;95.10;;;;;;2054375;28;20226;-83
2023/07/17 04:59:00;;;;;;;3.43;2.37;;;16.50;94.90;;;;;;2061673;28;20236;-84
2023/07/17 05:00:00;;;;;;;7.63;2.90;;;16.60;94.80;;;;;;2061354;28;20733;-84
2023/07/17 05:01:03;;;;;;;5.07;2.57;;;16.60;93.90;;;;;;2062584;28;20234;-85
2023/07/17 05:02:04;;;;;;;7.30;3.10;;;16.60;93.80;;;;;;2067666;28;20206;-83
2023/07/17 05:03:05;;;;;;;4.00;2.57;;;16.60;94.10;;;;;;2075536;28;20445;-84
2023/07/17 05:04:06;;;;;;;5.20;2.50;;;16.70;94.30;;;;;;2070800;28;20200;-85
2023/07/17 05:05:07;;;;;;;4.87;2.93;;;16.80;93.90;;;;;;2075655;28;20285;-84
2023/07/17 05:06:08;;;;;;;5.60;2.70;;;16.70;93.70;;;;;;2077930;28;20558;-84
2023/07/17 05:07:08;;;;;;;4.23;2.90;;;16.70;93.80;;;;;;2073899;28;20462;-84
2023/07/17 05:08:09;;;;;;;5.57;2.67;;;16.70;94.00;;;;;;2066144;28;20186;-84
2023/07/17 05:09:10;;;;;;;5.70;2.57;;;16.70;94.50;;;;;;2056664;28;20186;-85
2023/07/17 05:10:13;;;;;;;3.73;2.60;;;16.70;93.90;;;;;;2057822;28;21012;-85
2023/07/17 05:11:14;;;;;;;4.60;2.57;;;16.60;93.80;;;;;;2065161;28;20575;-85
2023/07/17 05:12:15;;;;;;;4.10;2.40;;;16.60;93.90;;;;;;2066163;28;20432;-85
2023/07/17 05:13:15;;;;;;;5.10;2.73;;;16.70;93.60;;;;;;2065618;28;20218;-85
2023/07/17 05:14:16;;;;;;;3.80;2.40;;;16.60;93.70;;;;;;2057484;28;20201;-86
2023/07/17 05:15:17;;;;;;;5.13;2.60;;;16.50;94.20;;;;;;2069220;28;20240;-83
2023/07/17 05:16:18;;;;;;;4.40;2.87;;;16.60;94.20;;;;;;2078104;28;20942;-84
2023/07/17 05:17:19;;;;;;;4.67;2.70;;;16.60;94.10;;;;;;2065414;28;20557;-84
2023/07/17 05:18:19;;;;;;;5.23;2.50;;;16.50;94.50;;;;;;2072521;28;20654;-84
2023/07/17 05:19:20;;;;;;;3.90;2.90;;;16.60;94.90;;;;;;2077114;28;20211;-84